Terminal Aerodrome Forecast
Issued by NWS Binghamton, NY

Home | Current Version | Previous Version | Text Only | Print | Product List | Glossary On
Versions: 1 2 3 4 5 6 7 8 9 10 11 12 13 14 15 16 17 18 19 20
000
FTUS41 KBGM 271412 AAA
TAFSYR
TAF AMD
KSYR 271412Z 2714/2812 20010G20KT P6SM BKN040
      TEMPO 2714/2718 -SHRA
     FM271900 21008KT P6SM BKN050
     FM280300 19005KT P6SM BKN060 BKN200
     FM280600 19011KT P6SM -SHRA OVC050=

USA.gov is the U.S. government's official web portal to all federal, state and local government web resources and services.